createdAt,value
2023-02-11T00:00:43.413Z,16.63
2023-02-11T00:03:10.385Z,16.70
2023-02-11T00:05:37.180Z,16.83
2023-02-11T00:08:05.475Z,17.10
2023-02-11T00:10:32.288Z,17.47
2023-02-11T00:12:59.079Z,17.87
2023-02-11T00:15:27.472Z,17.83
2023-02-11T00:17:54.379Z,17.07
2023-02-11T00:20:21.385Z,18.20
2023-02-11T00:22:48.112Z,17.80
2023-02-11T00:25:14.894Z,17.63
2023-02-11T00:27:41.712Z,17.67
2023-02-11T00:30:09.200Z,17.23
2023-02-11T00:32:37.033Z,18.13
2023-02-11T00:35:03.809Z,17.23
2023-02-11T00:37:30.531Z,17.23
2023-02-11T00:39:57.272Z,17.47
2023-02-11T00:42:23.967Z,16.40
2023-02-11T00:44:51.564Z,16.90
2023-02-11T00:47:18.275Z,18.00
2023-02-11T00:49:45.103Z,17.30
2023-02-11T00:52:12.063Z,17.27
2023-02-11T00:54:38.880Z,17.97
2023-02-11T00:57:05.641Z,17.97
2023-02-11T00:59:32.537Z,18.33
2023-02-11T01:01:59.289Z,16.80
2023-02-11T01:04:26.119Z,16.37
2023-02-11T01:06:53.150Z,17.17
2023-02-11T01:09:21.191Z,16.37
2023-02-11T01:11:48.350Z,16.43
2023-02-11T01:14:15.307Z,15.80
2023-02-11T01:16:42.236Z,16.30
2023-02-11T01:19:09.581Z,15.90
2023-02-11T01:21:39.130Z,15.00
2023-02-11T01:24:07.314Z,15.87
2023-02-11T01:26:34.101Z,14.73
2023-02-11T01:29:01.213Z,13.73
2023-02-11T01:31:28.432Z,14.17
2023-02-11T01:33:55.221Z,14.33
2023-02-11T01:36:22.032Z,13.77
2023-02-11T01:38:49.954Z,13.77
2023-02-11T01:41:16.914Z,13.47
2023-02-11T01:43:48.778Z,14.80
2023-02-11T01:46:38.142Z,13.70
2023-02-11T01:49:10.036Z,13.77
2023-02-11T01:51:52.043Z,13.40
2023-02-11T01:54:42.860Z,13.23
2023-02-11T01:57:22.434Z,13.60
2023-02-11T01:59:56.156Z,14.83
2023-02-11T02:02:31.418Z,15.33
2023-02-11T02:05:23.519Z,14.07
2023-02-11T02:07:59.848Z,14.30
2023-02-11T02:10:28.915Z,14.57
2023-02-11T02:12:55.961Z,15.50
2023-02-11T02:15:32.722Z,13.70
2023-02-11T02:18:21.061Z,15.07
2023-02-11T02:21:25.369Z,14.67
2023-02-11T02:24:29.701Z,14.30
2023-02-11T02:27:37.739Z,15.33
2023-02-11T02:30:38.791Z,14.53
2023-02-11T02:33:24.155Z,16.30
2023-02-11T02:36:09.624Z,15.20
2023-02-11T02:38:50.816Z,15.50
2023-02-11T02:41:21.202Z,15.93
2023-02-11T02:43:51.801Z,15.23
2023-02-11T02:46:24.945Z,14.60
2023-02-11T02:48:55.068Z,14.60
2023-02-11T02:51:54.640Z,15.10
2023-02-11T02:54:53.821Z,14.83
2023-02-11T02:57:37.631Z,15.47
2023-02-11T03:00:39.624Z,15.97
2023-02-11T03:03:25.028Z,14.93
2023-02-11T03:06:05.238Z,14.97
2023-02-11T03:08:53.392Z,14.50
2023-02-11T03:11:21.901Z,15.00
2023-02-11T03:13:50.760Z,14.60
2023-02-11T03:16:22.116Z,15.77
2023-02-11T03:18:53.595Z,17.30
2023-02-11T03:21:22.067Z,15.80
2023-02-11T03:24:00.133Z,16.63
2023-02-11T03:26:29.861Z,16.53
2023-02-11T03:29:20.741Z,15.73
2023-02-11T03:32:01.195Z,15.97
2023-02-11T03:34:35.866Z,15.63
2023-02-11T03:37:09.750Z,15.33
2023-02-11T03:39:39.724Z,14.77
2023-02-11T03:42:08.876Z,14.90
2023-02-11T03:44:41.209Z,15.13
2023-02-11T03:47:10.782Z,13.37
2023-02-11T03:49:40.403Z,12.77
2023-02-11T03:52:12.072Z,13.80
2023-02-11T03:54:43.445Z,12.57
2023-02-11T03:57:10.370Z,10.73
2023-02-11T03:59:51.188Z,11.37
2023-02-11T04:02:18.705Z,12.00
2023-02-11T04:04:46.305Z,12.13
2023-02-11T04:07:13.454Z,12.00
2023-02-11T04:09:40.296Z,12.13
2023-02-11T04:12:07.515Z,11.60
2023-02-11T04:14:34.302Z,12.27
2023-02-11T04:17:01.114Z,11.77
2023-02-11T04:19:27.871Z,11.50
2023-02-11T04:21:54.629Z,11.67
2023-02-11T04:24:21.496Z,11.30
2023-02-11T04:26:48.514Z,10.03
2023-02-11T04:29:15.324Z,11.07
2023-02-11T04:31:42.153Z,11.03
2023-02-11T04:34:10.194Z,10.57
2023-02-11T04:36:36.987Z,10.53
2023-02-11T04:39:04.525Z,10.43
2023-02-11T04:41:31.339Z,10.23
2023-02-11T04:43:58.147Z,10.50
2023-02-11T04:46:25.018Z,10.97
2023-02-11T04:48:51.826Z,10.47
2023-02-11T04:51:18.581Z,11.73
2023-02-11T04:53:45.375Z,11.13
2023-02-11T04:56:12.122Z,10.63
2023-02-11T04:58:38.858Z,11.30
2023-02-11T05:01:11.545Z,10.50
2023-02-11T05:03:38.691Z,10.40
2023-02-11T05:06:06.293Z,10.07
2023-02-11T05:08:34.183Z,10.70
2023-02-11T05:11:02.273Z,10.30
2023-02-11T05:13:29.755Z,9.67
2023-02-11T05:15:56.691Z,9.90
2023-02-11T05:18:24.050Z,8.70
2023-02-11T05:20:50.909Z,9.27
2023-02-11T05:23:17.710Z,8.17
2023-02-11T05:25:44.575Z,9.27
2023-02-11T05:28:11.380Z,9.13
2023-02-11T05:30:38.595Z,8.77
2023-02-11T05:33:05.501Z,8.97
2023-02-11T05:35:32.790Z,8.47
2023-02-11T05:37:59.513Z,9.10
2023-02-11T05:40:27.296Z,9.10
2023-02-11T05:42:54.113Z,8.63
2023-02-11T05:45:20.831Z,8.17
2023-02-11T05:47:47.563Z,7.60
2023-02-11T05:50:14.399Z,8.23
2023-02-11T05:52:41.310Z,7.80
2023-02-11T05:55:08.304Z,7.63
2023-02-11T05:57:35.206Z,7.97
2023-02-11T06:00:03.971Z,7.60
2023-02-11T06:02:30.896Z,7.80
2023-02-11T06:04:57.650Z,7.67
2023-02-11T06:07:24.588Z,8.30
2023-02-11T06:09:51.433Z,8.00
2023-02-11T06:12:18.381Z,6.73
2023-02-11T06:14:45.214Z,8.60
2023-02-11T06:17:13.415Z,7.90
2023-02-11T06:19:42.597Z,8.17
2023-02-11T06:22:09.442Z,9.37
2023-02-11T06:24:58.934Z,8.63
2023-02-11T06:27:25.939Z,8.13
2023-02-11T06:29:52.878Z,8.60
2023-02-11T06:32:39.571Z,8.77
2023-02-11T06:35:08.887Z,8.63
2023-02-11T06:37:39.089Z,8.30
2023-02-11T06:40:06.355Z,8.67
2023-02-11T06:42:33.219Z,9.37
2023-02-11T06:45:00.084Z,8.20
2023-02-11T06:47:26.896Z,8.03
2023-02-11T06:49:53.686Z,8.93
2023-02-11T06:52:20.578Z,8.67
2023-02-11T06:54:47.394Z,9.00
2023-02-11T06:57:14.179Z,8.57
2023-02-11T06:59:41.673Z,8.63
2023-02-11T07:02:10.747Z,8.50
2023-02-11T07:04:38.168Z,8.37
2023-02-11T07:07:05.167Z,9.23
2023-02-11T07:09:32.067Z,8.77
2023-02-11T07:11:59.966Z,9.03
2023-02-11T07:14:27.168Z,9.63
2023-02-11T07:16:54.642Z,10.57
2023-02-11T07:19:21.370Z,10.47
2023-02-11T07:21:48.793Z,9.53
2023-02-11T07:24:15.729Z,10.03
2023-02-11T07:26:42.825Z,9.20
2023-02-11T07:29:09.612Z,9.97
2023-02-11T07:31:36.502Z,9.80
2023-02-11T07:34:03.956Z,9.53
2023-02-11T07:36:32.174Z,10.37
2023-02-11T07:39:00.215Z,9.40
2023-02-11T07:41:27.488Z,10.07
2023-02-11T07:43:55.153Z,10.47
2023-02-11T07:46:26.903Z,10.20
2023-02-11T07:48:54.061Z,9.33
2023-02-11T07:51:24.252Z,9.77
2023-02-11T07:53:52.058Z,10.10
2023-02-11T07:56:20.460Z,10.30
2023-02-11T07:58:47.543Z,9.60
2023-02-11T08:01:17.656Z,9.90
2023-02-11T08:03:44.483Z,10.57
2023-02-11T08:06:14.441Z,9.73
2023-02-11T08:08:41.383Z,9.67
2023-02-11T08:11:10.212Z,11.70
2023-02-11T08:13:37.689Z,10.27
2023-02-11T08:16:05.557Z,11.17
2023-02-11T08:18:33.120Z,10.20
2023-02-11T08:21:08.234Z,9.73
2023-02-11T08:23:42.110Z,8.93
2023-02-11T08:26:18.129Z,8.83
2023-02-11T08:28:45.994Z,9.33
2023-02-11T08:31:17.778Z,8.83
2023-02-11T08:33:45.003Z,9.03
2023-02-11T08:36:15.559Z,9.73
2023-02-11T08:38:42.796Z,8.07
2023-02-11T08:41:10.083Z,8.17
2023-02-11T08:43:37.355Z,8.93
2023-02-11T08:46:05.776Z,8.00
2023-02-11T08:48:32.740Z,8.50
2023-02-11T08:51:00.267Z,8.50
2023-02-11T08:53:28.346Z,8.30
2023-02-11T08:55:55.940Z,6.47
2023-02-11T08:58:22.711Z,7.47
2023-02-11T09:00:50.492Z,6.97
2023-02-11T09:03:18.032Z,6.97
2023-02-11T09:05:49.929Z,6.57
2023-02-11T09:08:17.316Z,7.03
2023-02-11T09:10:44.214Z,6.67
2023-02-11T09:13:11.897Z,5.80
2023-02-11T09:15:38.718Z,6.37
2023-02-11T09:18:06.134Z,6.47
2023-02-11T09:20:33.144Z,6.90
2023-02-11T09:23:00.122Z,6.73
2023-02-11T09:25:27.058Z,6.20
2023-02-11T09:27:54.103Z,6.17
2023-02-11T09:30:21.294Z,5.60
2023-02-11T09:32:48.264Z,5.43
2023-02-11T09:35:15.087Z,5.90
2023-02-11T09:37:41.942Z,5.33
2023-02-11T09:40:09.505Z,5.47
2023-02-11T09:43:03.074Z,4.90
2023-02-11T09:45:32.022Z,5.13
2023-02-11T09:48:06.256Z,4.13
2023-02-11T09:50:37.621Z,4.80
2023-02-11T09:53:13.156Z,4.70
2023-02-11T09:55:46.557Z,4.40
2023-02-11T09:58:16.874Z,4.07
2023-02-11T10:00:49.691Z,4.20
2023-02-11T10:03:36.508Z,3.83
2023-02-11T10:06:23.067Z,3.67
2023-02-11T10:09:08.227Z,4.07
2023-02-11T10:11:55.590Z,3.83
2023-02-11T10:15:03.230Z,3.10
2023-02-11T10:17:48.792Z,4.03
2023-02-11T10:20:36.654Z,3.50
2023-02-11T10:23:17.068Z,3.60
2023-02-11T10:25:47.322Z,2.83
2023-02-11T10:28:20.499Z,2.97
2023-02-11T10:31:00.875Z,3.77
2023-02-11T10:33:43.211Z,3.00
2023-02-11T10:36:13.947Z,3.17
2023-02-11T10:38:41.011Z,3.27
2023-02-11T10:41:16.543Z,3.40
2023-02-11T10:43:43.659Z,3.13
2023-02-11T10:46:17.474Z,2.60
2023-02-11T10:48:52.881Z,2.83
2023-02-11T10:51:27.705Z,3.30
2023-02-11T10:54:19.379Z,3.30
2023-02-11T10:56:52.883Z,3.13
2023-02-11T10:59:24.798Z,2.80
2023-02-11T11:01:59.106Z,3.10
2023-02-11T11:04:35.125Z,2.83
2023-02-11T11:07:19.435Z,2.43
2023-02-11T11:10:01.287Z,3.03
2023-02-11T11:12:30.277Z,2.10
2023-02-11T11:15:13.575Z,2.67
2023-02-11T11:17:40.697Z,2.87
2023-02-11T11:20:22.844Z,2.60
2023-02-11T11:22:52.539Z,2.73
2023-02-11T11:25:29.333Z,2.73
2023-02-11T11:28:01.320Z,2.47
2023-02-11T11:30:41.927Z,2.00
2023-02-11T11:33:45.388Z,2.40
2023-02-11T11:36:21.334Z,2.20
2023-02-11T11:38:57.293Z,1.90
2023-02-11T11:41:33.521Z,1.73
2023-02-11T11:44:04.456Z,1.90
2023-02-11T11:46:42.104Z,2.27
2023-02-11T11:49:33.133Z,2.00
2023-02-11T11:52:34.839Z,1.80
2023-02-11T11:55:17.430Z,1.80
2023-02-11T11:57:44.418Z,2.20
2023-02-11T12:00:17.742Z,2.00
2023-02-11T12:03:09.457Z,2.17
2023-02-11T12:05:51.599Z,1.73
2023-02-11T12:08:46.247Z,2.00
2023-02-11T12:11:15.782Z,2.17
2023-02-11T12:14:00.495Z,2.10
2023-02-11T12:16:57.206Z,2.30
2023-02-11T12:20:14.249Z,2.40
2023-02-11T12:23:05.619Z,2.07
2023-02-11T12:25:51.363Z,2.13
2023-02-11T12:28:24.077Z,2.17
2023-02-11T12:31:14.596Z,2.60
2023-02-11T12:33:56.601Z,2.20
2023-02-11T12:36:26.455Z,2.73
2023-02-11T12:39:14.426Z,2.30
2023-02-11T12:42:32.188Z,2.43
2023-02-11T12:45:31.401Z,2.20
2023-02-11T12:48:10.531Z,2.27
2023-02-11T12:51:05.914Z,2.20
2023-02-11T12:53:41.941Z,2.30
2023-02-11T12:56:19.658Z,2.10
2023-02-11T12:58:48.295Z,2.20
2023-02-11T13:01:18.227Z,2.33
2023-02-11T13:04:12.189Z,2.10
2023-02-11T13:06:55.434Z,2.27
2023-02-11T13:09:34.255Z,2.03
2023-02-11T13:12:23.378Z,2.00
2023-02-11T13:14:54.457Z,2.13
2023-02-11T13:17:57.112Z,2.10
2023-02-11T13:20:36.397Z,1.93
2023-02-11T13:23:13.745Z,2.00
2023-02-11T13:25:53.100Z,2.00
2023-02-11T13:28:37.105Z,2.07
2023-02-11T13:31:07.177Z,2.20
2023-02-11T13:33:37.330Z,2.30
2023-02-11T13:36:04.830Z,1.73
2023-02-11T13:38:32.626Z,2.03
2023-02-11T13:41:29.991Z,2.30
2023-02-11T13:44:22.456Z,2.30
2023-02-11T13:46:57.308Z,2.60
2023-02-11T13:49:35.780Z,2.10
2023-02-11T13:52:06.422Z,2.93
2023-02-11T13:54:38.023Z,2.27
2023-02-11T13:57:20.378Z,2.43
2023-02-11T13:59:54.058Z,2.30
2023-02-11T14:02:46.832Z,2.33
2023-02-11T14:05:50.773Z,2.53
2023-02-11T14:08:44.266Z,2.50
2023-02-11T14:11:12.776Z,2.27
2023-02-11T14:13:48.639Z,2.50
2023-02-11T14:16:31.575Z,3.97
2023-02-11T14:19:06.046Z,2.87
2023-02-11T14:21:36.702Z,3.13
2023-02-11T14:24:04.953Z,2.63
2023-02-11T14:26:35.519Z,3.00
2023-02-11T14:29:20.825Z,3.33
2023-02-11T14:32:09.301Z,3.37
2023-02-11T14:35:03.159Z,2.60
2023-02-11T14:38:02.335Z,2.67
2023-02-11T14:41:01.682Z,3.37
2023-02-11T14:43:53.707Z,3.50
2023-02-11T14:46:22.088Z,3.33
2023-02-11T14:48:50.966Z,3.33
2023-02-11T14:51:27.184Z,3.23
2023-02-11T14:53:59.314Z,3.20
2023-02-11T14:56:31.088Z,2.90
2023-02-11T14:58:58.423Z,3.40
2023-02-11T15:01:35.306Z,3.63
2023-02-11T15:04:04.746Z,3.30
2023-02-11T15:06:39.946Z,3.60
2023-02-11T15:09:24.207Z,3.43
2023-02-11T15:11:52.169Z,3.73
2023-02-11T15:14:34.895Z,3.73
2023-02-11T15:17:05.818Z,3.10
2023-02-11T15:19:47.377Z,3.57
2023-02-11T15:22:39.352Z,3.67
2023-02-11T15:25:11.776Z,3.80
2023-02-11T15:27:50.177Z,3.77
2023-02-11T15:30:23.347Z,3.57
2023-02-11T15:32:58.020Z,3.87
2023-02-11T15:35:28.592Z,3.23
2023-02-11T15:37:57.490Z,3.57
2023-02-11T15:40:27.938Z,3.10
2023-02-11T15:43:02.565Z,3.60
2023-02-11T15:45:31.183Z,4.10
2023-02-11T15:48:05.288Z,4.30
2023-02-11T15:50:36.837Z,3.70
2023-02-11T15:53:21.573Z,3.93
2023-02-11T15:55:50.481Z,4.13
2023-02-11T15:58:17.751Z,4.03
2023-02-11T16:00:50.311Z,4.60
2023-02-11T16:03:25.503Z,3.80
2023-02-11T16:05:52.530Z,3.67
2023-02-11T16:08:30.002Z,3.10
2023-02-11T16:11:09.079Z,2.67
2023-02-11T16:13:47.243Z,3.03
2023-02-11T16:16:31.307Z,2.80
2023-02-11T16:19:05.349Z,3.07
2023-02-11T16:21:42.431Z,2.70
2023-02-11T16:24:19.415Z,2.93
2023-02-11T16:26:50.180Z,3.40
2023-02-11T16:29:22.709Z,2.93
2023-02-11T16:31:50.510Z,3.07
2023-02-11T16:34:23.185Z,2.93
2023-02-11T16:36:51.383Z,3.00
2023-02-11T16:39:21.600Z,2.93
2023-02-11T16:41:50.651Z,3.30
2023-02-11T16:44:18.206Z,3.67
2023-02-11T16:46:45.239Z,3.30
2023-02-11T16:49:16.470Z,3.00
2023-02-11T16:51:50.276Z,3.10
2023-02-11T16:54:18.699Z,2.60
2023-02-11T16:56:45.774Z,3.70
2023-02-11T16:59:12.583Z,3.60
2023-02-11T17:01:41.541Z,2.83
2023-02-11T17:04:17.762Z,3.60
2023-02-11T17:06:44.827Z,3.70
2023-02-11T17:09:18.821Z,4.07
2023-02-11T17:11:45.858Z,3.90
2023-02-11T17:14:13.006Z,4.43
2023-02-11T17:16:40.321Z,4.07
2023-02-11T17:19:07.462Z,4.00
2023-02-11T17:21:34.396Z,3.77
2023-02-11T17:24:21.863Z,3.83
2023-02-11T17:26:49.935Z,4.40
2023-02-11T17:29:21.346Z,3.93
2023-02-11T17:31:48.675Z,3.70
2023-02-11T17:34:16.812Z,4.20
2023-02-11T17:36:44.166Z,3.93
2023-02-11T17:39:11.535Z,4.10
2023-02-11T17:41:39.507Z,3.97
2023-02-11T17:44:07.517Z,4.27
2023-02-11T17:46:35.415Z,3.90
2023-02-11T17:49:03.269Z,4.10
2023-02-11T17:51:37.311Z,5.17
2023-02-11T17:54:07.575Z,4.13
2023-02-11T17:56:36.843Z,4.93
2023-02-11T17:59:04.920Z,4.27
2023-02-11T18:01:33.543Z,4.60
2023-02-11T18:04:02.008Z,4.90
2023-02-11T18:06:29.301Z,4.03
2023-02-11T18:08:58.010Z,4.03
2023-02-11T18:11:26.334Z,4.10
2023-02-11T18:13:54.505Z,3.63
2023-02-11T18:16:23.031Z,4.07
2023-02-11T18:18:50.834Z,4.70
2023-02-11T18:21:19.543Z,3.90
2023-02-11T18:23:47.222Z,4.00
2023-02-11T18:26:15.180Z,4.13
2023-02-11T18:28:45.539Z,3.80
2023-02-11T18:31:13.921Z,3.70
2023-02-11T18:33:41.816Z,4.03
2023-02-11T18:36:14.209Z,3.90
2023-02-11T18:38:44.223Z,4.07
2023-02-11T18:41:12.126Z,4.93
2023-02-11T18:43:40.058Z,4.50
2023-02-11T18:46:10.153Z,3.57
2023-02-11T18:48:38.222Z,4.63
2023-02-11T18:51:21.336Z,4.97
2023-02-11T18:53:48.185Z,4.50
2023-02-11T18:56:20.502Z,4.57
2023-02-11T18:58:48.783Z,4.57
2023-02-11T19:01:20.900Z,4.43
2023-02-11T19:03:48.374Z,5.23
2023-02-11T19:06:25.369Z,5.33
2023-02-11T19:08:53.518Z,6.47
2023-02-11T19:11:40.429Z,5.00
2023-02-11T19:14:10.284Z,7.47
2023-02-11T19:16:38.825Z,8.87
2023-02-11T19:19:06.420Z,10.77
2023-02-11T19:21:33.806Z,12.83
2023-02-11T19:24:02.211Z,14.70
2023-02-11T19:26:30.068Z,14.80
2023-02-11T19:28:58.863Z,11.10
2023-02-11T19:31:26.011Z,9.10
2023-02-11T19:33:52.871Z,7.23
2023-02-11T19:36:21.356Z,5.97
2023-02-11T19:38:48.070Z,6.80
2023-02-11T19:41:22.026Z,7.50
2023-02-11T19:43:52.900Z,7.87
2023-02-11T19:46:21.152Z,5.67
2023-02-11T19:48:48.697Z,7.20
2023-02-11T19:51:16.403Z,6.97
2023-02-11T19:53:44.577Z,6.50
2023-02-11T19:56:12.816Z,6.53
2023-02-11T19:58:40.687Z,7.30
2023-02-11T20:01:14.239Z,7.27
2023-02-11T20:03:42.875Z,7.97
2023-02-11T20:06:14.016Z,6.93
2023-02-11T20:08:41.454Z,7.60
2023-02-11T20:11:13.320Z,8.30
2023-02-11T20:13:40.796Z,7.27
2023-02-11T20:16:13.919Z,6.30
2023-02-11T20:18:41.418Z,7.07
2023-02-11T20:21:13.385Z,6.93
2023-02-11T20:23:40.813Z,7.17
2023-02-11T20:26:15.484Z,6.73
2023-02-11T20:28:43.786Z,7.70
2023-02-11T20:31:11.812Z,8.33
2023-02-11T20:33:40.973Z,7.20
2023-02-11T20:36:14.908Z,8.03
2023-02-11T20:38:42.565Z,8.07
2023-02-11T20:41:16.351Z,14.23
2023-02-11T20:43:48.133Z,17.03
2023-02-11T20:46:17.873Z,12.13
2023-02-11T20:48:44.679Z,14.13
2023-02-11T20:51:15.092Z,12.77
2023-02-11T20:53:47.965Z,8.93
2023-02-11T20:56:16.425Z,8.60
2023-02-11T20:58:43.243Z,8.47
2023-02-11T21:01:11.039Z,8.97
2023-02-11T21:03:39.192Z,9.97
2023-02-11T21:06:06.784Z,9.67
2023-02-11T21:08:33.744Z,11.10
2023-02-11T21:11:01.859Z,10.63
2023-02-11T21:13:28.848Z,11.00
2023-02-11T21:15:57.018Z,9.50
2023-02-11T21:18:24.659Z,9.60
2023-02-11T21:20:53.674Z,10.43
2023-02-11T21:23:20.731Z,10.97
2023-02-11T21:25:48.025Z,8.43
2023-02-11T21:28:14.962Z,9.43
2023-02-11T21:30:42.119Z,9.60
2023-02-11T21:33:09.249Z,7.93
2023-02-11T21:35:36.874Z,7.93
2023-02-11T21:38:05.542Z,8.47
2023-02-11T21:40:32.557Z,8.67
2023-02-11T21:42:59.491Z,7.77
2023-02-11T21:45:26.396Z,8.87
2023-02-11T21:47:53.490Z,8.80
2023-02-11T21:50:20.498Z,8.90
2023-02-11T21:52:47.321Z,8.63
2023-02-11T21:55:14.153Z,8.33
2023-02-11T21:57:41.035Z,8.40
2023-02-11T22:00:08.751Z,7.57
2023-02-11T22:02:37.393Z,8.90
2023-02-11T22:05:04.858Z,9.07
2023-02-11T22:07:31.776Z,8.80
2023-02-11T22:09:59.309Z,10.20
2023-02-11T22:12:26.073Z,9.40
2023-02-11T22:14:53.445Z,10.27
2023-02-11T22:17:20.409Z,9.70
2023-02-11T22:19:47.255Z,9.90
2023-02-11T22:22:18.188Z,9.50
2023-02-11T22:24:46.103Z,8.13
2023-02-11T22:27:14.322Z,8.30
2023-02-11T22:29:41.209Z,8.73
2023-02-11T22:32:08.506Z,9.23
2023-02-11T22:34:35.923Z,9.60
2023-02-11T22:37:03.169Z,9.10
2023-02-11T22:39:30.154Z,10.03
2023-02-11T22:41:57.503Z,9.60
2023-02-11T22:44:25.013Z,9.17
2023-02-11T22:46:53.067Z,9.20
2023-02-11T22:49:22.738Z,8.70
2023-02-11T22:51:49.537Z,8.63
2023-02-11T22:54:18.445Z,8.17
2023-02-11T22:56:45.936Z,7.83
2023-02-11T22:59:14.525Z,8.00
2023-02-11T23:01:42.186Z,8.53
2023-02-11T23:04:11.942Z,8.07
2023-02-11T23:06:38.789Z,8.20
2023-02-11T23:09:07.591Z,7.87
2023-02-11T23:11:34.771Z,8.07
2023-02-11T23:14:02.300Z,7.93
2023-02-11T23:16:34.121Z,8.63
2023-02-11T23:19:06.344Z,9.03
2023-02-11T23:21:35.251Z,8.63
2023-02-11T23:24:21.351Z,8.13
2023-02-11T23:26:48.391Z,7.57
2023-02-11T23:29:15.193Z,8.67
2023-02-11T23:31:45.985Z,8.40
2023-02-11T23:34:18.392Z,9.13
2023-02-11T23:36:45.353Z,9.70
2023-02-11T23:39:15.161Z,9.23
2023-02-11T23:41:44.267Z,9.23
2023-02-11T23:44:11.101Z,8.90
2023-02-11T23:46:38.466Z,9.57
2023-02-11T23:49:05.294Z,9.70
2023-02-11T23:51:32.128Z,9.20
2023-02-11T23:53:58.990Z,8.87
2023-02-11T23:56:27.712Z,8.37
2023-02-11T23:58:57.314Z,8.50
